createdAt,value
2023-01-19T00:00:51.860Z,74.21
2023-01-19T00:01:51.907Z,74.3
2023-01-19T00:02:52.133Z,74.3
2023-01-19T00:03:51.920Z,74.3
2023-01-19T00:04:51.932Z,74.3
2023-01-19T00:05:52.159Z,74.3
2023-01-19T00:06:51.945Z,74.3
2023-01-19T00:07:51.947Z,74.3
2023-01-19T00:08:51.703Z,74.77
2023-01-19T00:09:51.976Z,74.4
2023-01-19T00:10:51.981Z,74.4
2023-01-19T00:11:51.997Z,74.3
2023-01-19T00:12:52.005Z,74.4
2023-01-19T00:13:52.100Z,74.3
2023-01-19T00:14:52.043Z,74.11
2023-01-19T00:15:52.226Z,74.21
2023-01-19T00:16:52.058Z,74.11
2023-01-19T00:17:52.100Z,74.68
2023-01-19T00:18:52.117Z,74.49
2023-01-19T00:19:52.100Z,74.58
2023-01-19T00:20:52.130Z,74.58
2023-01-19T00:21:52.128Z,74.4
2023-01-19T00:22:52.126Z,74.58
2023-01-19T00:23:52.150Z,74.58
2023-01-19T00:24:52.174Z,74.49
2023-01-19T00:25:52.168Z,74.68
2023-01-19T00:26:52.197Z,74.4
2023-01-19T00:27:52.652Z,74.49
2023-01-19T00:28:51.956Z,74.68
2023-01-19T00:29:52.230Z,74.68
2023-01-19T00:30:52.243Z,74.4
2023-01-19T00:31:52.331Z,74.96
2023-01-19T00:32:52.001Z,74.87
2023-01-19T00:33:52.047Z,74.4
2023-01-19T00:34:52.303Z,74.87
2023-01-19T00:35:52.292Z,74.3
2023-01-19T00:36:52.340Z,74.96
2023-01-19T00:37:52.063Z,74.68
2023-01-19T00:38:52.342Z,74.4
2023-01-19T00:39:52.365Z,74.68
2023-01-19T00:40:52.364Z,74.87
2023-01-19T00:41:52.384Z,74.68
2023-01-19T00:42:52.137Z,74.68
2023-01-19T00:43:52.397Z,74.58
2023-01-19T00:44:52.429Z,74.58
2023-01-19T00:45:52.332Z,74.49
2023-01-19T00:46:52.195Z,74.58
2023-01-19T00:47:52.205Z,74.68
2023-01-19T00:48:52.204Z,74.68
2023-01-19T00:49:52.521Z,74.68
2023-01-19T00:50:52.490Z,74.4
2023-01-19T00:51:52.253Z,74.58
2023-01-19T00:52:52.656Z,74.68
2023-01-19T00:53:52.522Z,75.24
2023-01-19T00:54:52.633Z,75.24
2023-01-19T00:55:52.553Z,75.34
2023-01-19T00:56:52.304Z,75.15
2023-01-19T00:57:52.600Z,75.34
2023-01-19T00:58:52.597Z,74.96
2023-01-19T00:59:52.617Z,75.05
2023-01-19T01:00:52.821Z,74.96
2023-01-19T01:01:53.173Z,75.15
2023-01-19T01:02:52.480Z,74.87
2023-01-19T01:03:52.645Z,74.87
2023-01-19T01:04:52.672Z,75.15
2023-01-19T01:05:52.440Z,75.15
2023-01-19T01:06:52.692Z,74.96
2023-01-19T01:07:52.701Z,74.87
2023-01-19T01:08:52.744Z,74.96
2023-01-19T01:09:52.462Z,74.77
2023-01-19T01:10:52.743Z,75.05
2023-01-19T01:11:53.307Z,74.68
2023-01-19T01:13:00.546Z,74.77
2023-01-19T01:13:53.158Z,74.77
2023-01-19T01:14:52.785Z,74.77
2023-01-19T01:15:52.808Z,75.43
2023-01-19T01:16:52.976Z,74.96
2023-01-19T01:17:52.566Z,74.96
2023-01-19T01:18:52.834Z,75.43
2023-01-19T01:19:52.847Z,75.15
2023-01-19T01:20:55.208Z,75.34
2023-01-19T01:21:52.682Z,75.24
2023-01-19T01:22:52.893Z,74.96
2023-01-19T01:23:53.117Z,74.96
2023-01-19T01:24:52.933Z,75.34
2023-01-19T01:25:52.940Z,74.77
2023-01-19T01:26:52.959Z,75.24
2023-01-19T01:27:53.350Z,75.43
2023-01-19T01:28:52.704Z,75.43
2023-01-19T01:29:52.978Z,75.43
2023-01-19T01:30:52.980Z,75.24
2023-01-19T01:31:53.088Z,75.15
2023-01-19T01:32:53.014Z,75.24
2023-01-19T01:33:53.046Z,75.24
2023-01-19T01:34:53.033Z,75.24
2023-01-19T01:35:53.051Z,75.15
2023-01-19T01:36:53.057Z,75.24
2023-01-19T01:37:53.104Z,75.15
2023-01-19T01:38:53.085Z,75.15
2023-01-19T01:39:53.104Z,75.43
2023-01-19T01:40:53.200Z,75.34
2023-01-19T01:41:56.298Z,75.34
2023-01-19T01:42:52.882Z,75.34
2023-01-19T01:43:52.889Z,75.24
2023-01-19T01:44:53.221Z,75.34
2023-01-19T01:45:53.275Z,75.34
2023-01-19T01:46:53.183Z,75.34
2023-01-19T01:47:52.952Z,75.24
2023-01-19T01:48:53.201Z,75.34
2023-01-19T01:49:53.233Z,75.24
2023-01-19T01:50:53.246Z,75.15
2023-01-19T01:51:53.266Z,75.05
2023-01-19T01:53:09.761Z,75.05
2023-01-19T01:53:53.275Z,75.43
2023-01-19T01:54:53.288Z,75.15
2023-01-19T01:55:53.311Z,75.15
2023-01-19T01:56:53.387Z,75.15
2023-01-19T01:57:53.336Z,75.15
2023-01-19T01:58:53.337Z,75.24
2023-01-19T01:59:53.349Z,75.05
2023-01-19T02:00:53.428Z,75.05
2023-01-19T02:01:53.409Z,75.05
2023-01-19T02:02:53.589Z,75.15
2023-01-19T02:03:53.409Z,75.34
2023-01-19T02:04:53.442Z,75.34
2023-01-19T02:05:53.155Z,75.24
2023-01-19T02:06:53.442Z,75.34
2023-01-19T02:07:53.190Z,75.34
2023-01-19T02:08:53.236Z,75.53
2023-01-19T02:09:53.477Z,75.05
2023-01-19T02:10:53.503Z,75.24
2023-01-19T02:11:53.244Z,75.05
2023-01-19T02:12:53.541Z,75.34
2023-01-19T02:13:53.526Z,75.05
2023-01-19T02:14:53.535Z,75.05
2023-01-19T02:15:53.575Z,74.96
2023-01-19T02:16:53.708Z,75.15
2023-01-19T02:17:53.591Z,75.05
2023-01-19T02:18:53.599Z,75.15
2023-01-19T02:19:53.609Z,75.24
2023-01-19T02:20:53.611Z,75.24
2023-01-19T02:21:53.631Z,75.24
2023-01-19T02:22:53.648Z,75.15
2023-01-19T02:23:53.669Z,75.62
2023-01-19T02:24:53.689Z,75.62
2023-01-19T02:25:53.679Z,75.81
2023-01-19T02:26:53.702Z,75.62
2023-01-19T02:27:54.136Z,75.15
2023-01-19T02:28:53.750Z,75.62
2023-01-19T02:29:53.724Z,75.72
2023-01-19T02:30:53.941Z,75.72
2023-01-19T02:31:53.757Z,75.72
2023-01-19T02:32:53.761Z,75.81
2023-01-19T02:33:53.780Z,75.62
2023-01-19T02:34:53.790Z,75.62
2023-01-19T02:35:53.807Z,75.72
2023-01-19T02:36:53.865Z,75.62
2023-01-19T02:37:53.828Z,75.72
2023-01-19T02:38:53.589Z,75.72
2023-01-19T02:39:53.622Z,75.53
2023-01-19T02:40:53.635Z,75.72
2023-01-19T02:41:53.905Z,75.72
2023-01-19T02:42:53.636Z,75.62
2023-01-19T02:43:53.905Z,75.62
2023-01-19T02:44:53.943Z,75.72
2023-01-19T02:45:53.993Z,75.72
2023-01-19T02:46:53.942Z,75.43
2023-01-19T02:47:53.699Z,75.53
2023-01-19T02:48:53.970Z,75.43
2023-01-19T02:49:53.976Z,75.43
2023-01-19T02:50:54.005Z,75.53
2023-01-19T02:51:54.097Z,75.72
2023-01-19T02:52:54.022Z,75.53
2023-01-19T02:53:54.050Z,75.43
2023-01-19T02:54:54.058Z,75.43
2023-01-19T02:55:54.062Z,75.34
2023-01-19T02:56:54.128Z,75.43
2023-01-19T02:57:54.090Z,76
2023-01-19T02:58:54.086Z,75.62
2023-01-19T02:59:54.099Z,75.34
2023-01-19T03:00:54.224Z,75.43
2023-01-19T03:01:54.173Z,75.72
2023-01-19T03:02:54.018Z,75.34
2023-01-19T03:03:54.162Z,75.43
2023-01-19T03:04:54.199Z,75.62
2023-01-19T03:05:54.181Z,75.72
2023-01-19T03:06:54.200Z,75.72
2023-01-19T03:07:54.208Z,75.81
2023-01-19T03:08:54.217Z,75.53
2023-01-19T03:09:54.242Z,75.81
2023-01-19T03:10:53.982Z,75.53
2023-01-19T03:11:54.003Z,75.72
2023-01-19T03:12:54.287Z,76.1
2023-01-19T03:13:54.283Z,76.19
2023-01-19T03:14:54.302Z,75.62
2023-01-19T03:15:54.261Z,75.62
2023-01-19T03:16:54.441Z,75.72
2023-01-19T03:17:54.332Z,75.72
2023-01-19T03:18:54.339Z,76
2023-01-19T03:19:54.362Z,76
2023-01-19T03:20:54.387Z,75.91
2023-01-19T03:21:54.396Z,76
2023-01-19T03:22:54.399Z,76
2023-01-19T03:23:54.409Z,75.91
2023-01-19T03:24:54.418Z,75.81
2023-01-19T03:25:54.447Z,76.19
2023-01-19T03:26:54.456Z,76.1
2023-01-19T03:27:54.655Z,76.1
2023-01-19T03:28:54.499Z,76.29
2023-01-19T03:29:54.485Z,76.1
2023-01-19T03:30:54.589Z,76
2023-01-19T03:31:54.530Z,76.29
2023-01-19T03:32:54.631Z,76.1
2023-01-19T03:33:54.529Z,75.91
2023-01-19T03:34:54.534Z,75.91
2023-01-19T03:35:54.554Z,76.38
2023-01-19T03:36:54.312Z,76.1
2023-01-19T03:37:54.584Z,76
2023-01-19T03:38:54.596Z,75.81
2023-01-19T03:39:54.607Z,76
2023-01-19T03:40:54.621Z,76
2023-01-19T03:41:54.634Z,76.14
2023-01-19T03:42:54.640Z,76
2023-01-19T03:43:54.395Z,76.04
2023-01-19T03:44:54.691Z,76.19
2023-01-19T03:45:54.496Z,75.81
2023-01-19T03:46:54.701Z,76.29
2023-01-19T03:47:54.717Z,75.81
2023-01-19T03:48:54.870Z,75.91
2023-01-19T03:49:54.729Z,76.38
2023-01-19T03:50:54.488Z,76
2023-01-19T03:51:54.800Z,76.14
2023-01-19T03:52:54.770Z,76.1
2023-01-19T03:53:54.574Z,76
2023-01-19T03:54:54.790Z,76.19
2023-01-19T03:55:54.805Z,76.32
2023-01-19T03:56:54.876Z,76.38
2023-01-19T03:57:54.838Z,75.85
2023-01-19T03:58:56.262Z,76.19
2023-01-19T03:59:54.847Z,76.19
2023-01-19T04:00:55.021Z,76.04
2023-01-19T04:01:55.029Z,76.14
2023-01-19T04:02:54.759Z,76.23
2023-01-19T04:03:54.917Z,76.32
2023-01-19T04:04:55.002Z,76.23
2023-01-19T04:05:54.924Z,75.85
2023-01-19T04:06:54.945Z,75.81
2023-01-19T04:07:54.948Z,75.81
2023-01-19T04:08:54.978Z,75.81
2023-01-19T04:09:54.974Z,76.38
2023-01-19T04:10:54.995Z,76.38
2023-01-19T04:11:55.006Z,76.23
2023-01-19T04:12:54.768Z,76.61
2023-01-19T04:13:54.780Z,76.38
2023-01-19T04:14:55.046Z,76.7
2023-01-19T04:15:55.154Z,76.29
2023-01-19T04:16:55.112Z,76.32
2023-01-19T04:17:55.082Z,76.29
2023-01-19T04:18:54.931Z,76.29
2023-01-19T04:19:55.110Z,76.29
2023-01-19T04:20:55.155Z,76.38
2023-01-19T04:21:55.159Z,76.38
2023-01-19T04:22:55.145Z,76.61
2023-01-19T04:23:54.901Z,76.99
2023-01-19T04:24:55.184Z,76.7
2023-01-19T04:25:54.918Z,76.86
2023-01-19T04:26:55.206Z,76.89
2023-01-19T04:27:55.549Z,76.7
2023-01-19T04:28:55.232Z,76.76
2023-01-19T04:29:55.249Z,76.89
2023-01-19T04:30:55.504Z,76.86
2023-01-19T04:31:55.259Z,76.8
2023-01-19T04:32:55.298Z,76.7
2023-01-19T04:33:55.280Z,76.7
2023-01-19T04:34:55.290Z,76.7
2023-01-19T04:35:56.958Z,76.7
2023-01-19T04:36:55.343Z,76.51
2023-01-19T04:37:55.074Z,76.7
2023-01-19T04:38:55.346Z,76.61
2023-01-19T04:39:55.400Z,76.51
2023-01-19T04:40:55.379Z,76.42
2023-01-19T04:41:55.392Z,76.51
2023-01-19T04:42:55.388Z,76.51
2023-01-19T04:43:55.566Z,76.67
2023-01-19T04:44:55.151Z,76.51
2023-01-19T04:45:55.187Z,76.51
2023-01-19T04:46:55.443Z,76.51
2023-01-19T04:47:55.473Z,76.51
2023-01-19T04:48:55.704Z,76.8
2023-01-19T04:49:55.483Z,76.7
2023-01-19T04:50:55.241Z,76.61
2023-01-19T04:51:55.546Z,76.7
2023-01-19T04:52:55.537Z,77.08
2023-01-19T04:53:55.608Z,76.23
2023-01-19T04:54:55.542Z,76.61
2023-01-19T04:55:55.574Z,77.08
2023-01-19T04:56:55.577Z,77.14
2023-01-19T04:57:55.595Z,77.18
2023-01-19T04:58:55.608Z,76.86
2023-01-19T04:59:55.398Z,76.89
2023-01-19T05:00:55.806Z,76.89
2023-01-19T05:01:55.723Z,76.95
2023-01-19T05:02:55.697Z,76.89
2023-01-19T05:03:55.668Z,76.95
2023-01-19T05:04:55.702Z,76.89
2023-01-19T05:05:55.428Z,76.89
2023-01-19T05:06:55.439Z,76.86
2023-01-19T05:07:55.726Z,77.37
2023-01-19T05:08:55.755Z,77.08
2023-01-19T05:09:55.743Z,76.8
2023-01-19T05:10:55.739Z,77.04
2023-01-19T05:11:55.786Z,77.08
2023-01-19T05:12:55.670Z,76.89
2023-01-19T05:13:55.797Z,76.89
2023-01-19T05:14:55.545Z,76.99
2023-01-19T05:15:55.890Z,77.46
2023-01-19T05:16:55.830Z,77.46
2023-01-19T05:17:55.836Z,77.18
2023-01-19T05:18:55.841Z,77.08
2023-01-19T05:19:55.864Z,76.89
2023-01-19T05:20:55.901Z,76.89
2023-01-19T05:21:55.627Z,77.18
2023-01-19T05:22:55.921Z,77.18
2023-01-19T05:23:55.921Z,77.37
2023-01-19T05:24:55.950Z,77.18
2023-01-19T05:25:55.927Z,77.18
2023-01-19T05:26:55.944Z,77.37
2023-01-19T05:27:56.368Z,77.37
2023-01-19T05:28:55.967Z,77.46
2023-01-19T05:29:55.989Z,77.42
2023-01-19T05:30:56.058Z,76.99
2023-01-19T05:31:56.155Z,77.42
2023-01-19T05:32:56.022Z,77.37
2023-01-19T05:33:56.037Z,77.27
2023-01-19T05:34:56.078Z,77.27
2023-01-19T05:35:56.218Z,77.37
2023-01-19T05:36:56.106Z,77.56
2023-01-19T05:37:56.092Z,77.56
2023-01-19T05:38:56.102Z,76.8
2023-01-19T05:39:55.883Z,77.46
2023-01-19T05:40:56.178Z,77.56
2023-01-19T05:41:56.143Z,77.37
2023-01-19T05:42:56.150Z,77.18
2023-01-19T05:43:56.179Z,77.46
2023-01-19T05:44:56.177Z,77.18
2023-01-19T05:45:56.200Z,77.37
2023-01-19T05:46:56.398Z,77.37
2023-01-19T05:47:56.226Z,77.27
2023-01-19T05:48:56.224Z,77.27
2023-01-19T05:49:55.975Z,77.18
2023-01-19T05:50:56.249Z,77.27
2023-01-19T05:51:56.266Z,77.37
2023-01-19T05:52:56.303Z,76.99
2023-01-19T05:53:56.285Z,77.46
2023-01-19T05:54:56.528Z,77.37
2023-01-19T05:55:56.307Z,77.18
2023-01-19T05:56:56.380Z,77.27
2023-01-19T05:57:56.340Z,77.37
2023-01-19T05:58:56.363Z,77.84
2023-01-19T05:59:56.361Z,77.56
2023-01-19T06:00:56.567Z,77.18
2023-01-19T06:01:56.385Z,77.27
2023-01-19T06:02:56.598Z,77.37
2023-01-19T06:03:56.418Z,77.46
2023-01-19T06:04:56.435Z,77.75
2023-01-19T06:05:56.203Z,76.99
2023-01-19T06:06:56.454Z,77.08
2023-01-19T06:07:56.465Z,78.03
2023-01-19T06:08:56.533Z,77.75
2023-01-19T06:09:56.505Z,77.18
2023-01-19T06:10:56.507Z,77.84
2023-01-19T06:11:56.565Z,77.94
2023-01-19T06:12:56.552Z,77.84
2023-01-19T06:13:56.545Z,77.84
2023-01-19T06:14:56.294Z,77.94
2023-01-19T06:15:56.305Z,77.08
2023-01-19T06:16:56.586Z,77.65
2023-01-19T06:17:56.610Z,77.46
2023-01-19T06:18:56.615Z,77.37
2023-01-19T06:19:56.659Z,77.46
2023-01-19T06:20:56.781Z,77.37
2023-01-19T06:21:56.639Z,77.37
2023-01-19T06:22:56.647Z,77.56
2023-01-19T06:23:56.677Z,77.56
2023-01-19T06:24:56.699Z,77.46
2023-01-19T06:25:56.828Z,77.46
2023-01-19T06:26:56.452Z,77.56
2023-01-19T06:27:57.185Z,77.37
2023-01-19T06:28:56.755Z,77.27
2023-01-19T06:29:56.508Z,77.56
2023-01-19T06:30:56.570Z,77.27
2023-01-19T06:31:56.860Z,77.27
2023-01-19T06:32:56.518Z,77.84
2023-01-19T06:33:56.797Z,77.84
2023-01-19T06:34:56.871Z,77.75
2023-01-19T06:35:56.830Z,77.84
2023-01-19T06:36:56.574Z,77.65
2023-01-19T06:37:56.843Z,77.94
2023-01-19T06:38:56.605Z,77.84
2023-01-19T06:39:56.885Z,77.75
2023-01-19T06:40:56.908Z,77.75
2023-01-19T06:41:56.907Z,77.94
2023-01-19T06:42:56.914Z,77.65
2023-01-19T06:43:56.929Z,77.84
2023-01-19T06:44:56.961Z,77.75
2023-01-19T06:45:56.883Z,77.37
2023-01-19T06:47:18.275Z,77.94
2023-01-19T06:47:56.705Z,77.65
2023-01-19T06:48:56.743Z,77.84
2023-01-19T06:49:57.043Z,78.03
2023-01-19T06:50:58.685Z,77.75
2023-01-19T06:51:57.023Z,77.75
2023-01-19T06:52:57.153Z,77.56
2023-01-19T06:53:57.062Z,77.84
2023-01-19T06:54:59.065Z,78.31
2023-01-19T06:55:57.067Z,78.22
2023-01-19T06:56:57.118Z,78.31
2023-01-19T06:57:57.098Z,78.22
2023-01-19T06:58:57.117Z,77.84
2023-01-19T06:59:56.877Z,78.13
2023-01-19T07:00:57.323Z,78.13
2023-01-19T07:01:57.625Z,78.31
2023-01-19T07:02:57.334Z,78.22
2023-01-19T07:03:57.187Z,77.94
2023-01-19T07:04:57.185Z,78.22
2023-01-19T07:05:57.207Z,77.94
2023-01-19T07:06:57.220Z,78.13
2023-01-19T07:07:57.229Z,78.31
2023-01-19T07:08:57.283Z,78.22
2023-01-19T07:09:57.279Z,77.65
2023-01-19T07:11:31.912Z,77.65
2023-01-19T07:11:57.038Z,78.13
2023-01-19T07:12:57.171Z,77.84
2023-01-19T07:13:57.323Z,78.31
2023-01-19T07:14:57.312Z,78.41
2023-01-19T07:15:57.065Z,78.13
2023-01-19T07:16:57.504Z,78.22
2023-01-19T07:17:57.348Z,78.22
2023-01-19T07:18:57.110Z,78.22
2023-01-19T07:19:57.377Z,78.22
2023-01-19T07:20:57.390Z,78.59
2023-01-19T07:21:57.413Z,78.13
2023-01-19T07:22:57.433Z,78.13
2023-01-19T07:23:57.453Z,78.03
2023-01-19T07:24:57.184Z,78.31
2023-01-19T07:25:57.465Z,78.31
2023-01-19T07:26:57.470Z,78.98
2023-01-19T07:27:57.824Z,78.69
2023-01-19T07:28:57.591Z,78.79
2023-01-19T07:29:57.253Z,78.31
2023-01-19T07:30:57.722Z,78.41
2023-01-19T07:31:57.540Z,78.5
2023-01-19T07:32:57.872Z,78.69
2023-01-19T07:33:57.559Z,78.69
2023-01-19T07:34:57.574Z,78.79
2023-01-19T07:35:57.583Z,78.69
2023-01-19T07:36:57.591Z,78.59
2023-01-19T07:37:57.594Z,78.59
2023-01-19T07:38:57.628Z,78.79
2023-01-19T07:39:57.630Z,78.69
2023-01-19T07:40:57.637Z,78.31
2023-01-19T07:41:57.873Z,78.79
2023-01-19T07:42:57.704Z,78.41
2023-01-19T07:43:57.682Z,78.5
2023-01-19T07:44:57.462Z,78.88
2023-01-19T07:45:57.766Z,78.31
2023-01-19T07:46:57.724Z,78.5
2023-01-19T07:47:57.768Z,78.69
2023-01-19T07:48:57.800Z,78.69
2023-01-19T07:49:57.765Z,78.79
2023-01-19T07:50:57.775Z,78.79
2023-01-19T07:51:57.778Z,78.5
2023-01-19T07:52:57.878Z,78.5
2023-01-19T07:53:57.809Z,78.5
2023-01-19T07:54:57.821Z,79.07
2023-01-19T07:55:57.831Z,79.07
2023-01-19T07:56:57.841Z,79.07
2023-01-19T07:57:57.869Z,78.5
2023-01-19T07:58:57.609Z,78.88
2023-01-19T07:59:57.883Z,78.69
2023-01-19T08:00:58.324Z,78.79
2023-01-19T08:01:58.316Z,78.69
2023-01-19T08:02:58.108Z,79.17
2023-01-19T08:03:57.955Z,78.98
2023-01-19T08:04:58.071Z,79.07
2023-01-19T08:05:57.961Z,79.07
2023-01-19T08:06:58.033Z,79.17
2023-01-19T08:07:58.006Z,79.17
2023-01-19T08:08:58.024Z,78.98
2023-01-19T08:09:58.015Z,79.07
2023-01-19T08:10:58.022Z,79.07
2023-01-19T08:11:57.784Z,78.88
2023-01-19T08:12:58.073Z,79.07
2023-01-19T08:13:58.059Z,79.07
2023-01-19T08:14:58.077Z,79.07
2023-01-19T08:15:57.981Z,79.17
2023-01-19T08:16:58.151Z,78.98
2023-01-19T08:17:58.130Z,78.88
2023-01-19T08:18:58.132Z,78.98
2023-01-19T08:19:58.138Z,78.98
2023-01-19T08:20:58.234Z,79.17
2023-01-19T08:21:58.175Z,78.98
2023-01-19T08:22:58.365Z,79.17
2023-01-19T08:23:58.346Z,78.88
2023-01-19T08:24:58.206Z,78.69
2023-01-19T08:25:58.365Z,79.45
2023-01-19T08:26:58.249Z,78.98
2023-01-19T08:27:58.474Z,79.26
2023-01-19T08:28:57.987Z,79.07
2023-01-19T08:29:58.272Z,79.55
2023-01-19T08:31:01.433Z,79.36
2023-01-19T08:31:58.514Z,79.36
2023-01-19T08:32:58.783Z,79.36
2023-01-19T08:33:58.318Z,79.17
2023-01-19T08:34:58.326Z,78.98
2023-01-19T08:35:58.096Z,79.36
2023-01-19T08:36:58.418Z,79.07
2023-01-19T08:37:58.365Z,79.17
2023-01-19T08:38:58.390Z,79.17
2023-01-19T08:39:58.390Z,79.64
2023-01-19T08:40:58.394Z,79.36
2023-01-19T08:41:58.431Z,79.55
2023-01-19T08:42:58.608Z,79.17
2023-01-19T08:43:58.449Z,79.36
2023-01-19T08:45:00.944Z,79.36
2023-01-19T08:45:58.800Z,79.26
2023-01-19T08:46:58.494Z,78.98
2023-01-19T08:47:58.503Z,79.55
2023-01-19T08:48:58.525Z,79.55
2023-01-19T08:49:58.536Z,79.26
2023-01-19T08:50:58.528Z,79.07
2023-01-19T08:51:58.541Z,79.36
2023-01-19T08:52:58.850Z,79.17
2023-01-19T08:53:58.565Z,79.45
2023-01-19T08:54:58.582Z,79.17
2023-01-19T08:55:58.341Z,79.26
2023-01-19T08:56:58.614Z,79.17
2023-01-19T08:57:58.493Z,79.55
2023-01-19T08:59:12.508Z,79.45
2023-01-19T08:59:58.645Z,79.17
2023-01-19T09:00:58.810Z,79.36
2023-01-19T09:01:58.816Z,79.26
2023-01-19T09:02:59.010Z,79.17
2023-01-19T09:03:58.697Z,79.26
2023-01-19T09:04:58.733Z,79.17
2023-01-19T09:05:58.720Z,79.17
2023-01-19T09:06:58.728Z,79.17
2023-01-19T09:07:58.776Z,79.17
2023-01-19T09:08:58.787Z,79.55
2023-01-19T09:09:58.825Z,79.07
2023-01-19T09:10:58.785Z,79.74
2023-01-19T09:11:58.804Z,79.17
2023-01-19T09:12:58.816Z,79.17
2023-01-19T09:13:58.847Z,78.88
2023-01-19T09:14:58.664Z,79.55
2023-01-19T09:15:58.948Z,79.36
2023-01-19T09:16:58.859Z,78.98
2023-01-19T09:17:59.167Z,79.17
2023-01-19T09:18:58.884Z,79.26
2023-01-19T09:19:58.894Z,79.26
2023-01-19T09:20:58.936Z,79.17
2023-01-19T09:21:58.918Z,79.55
2023-01-19T09:22:58.945Z,79.55
2023-01-19T09:23:58.957Z,79.64
2023-01-19T09:24:59.127Z,79.55
2023-01-19T09:25:58.994Z,79.55
2023-01-19T09:26:58.745Z,79.64
2023-01-19T09:27:59.627Z,79.64
2023-01-19T09:28:59.028Z,79.74
2023-01-19T09:29:59.029Z,79.74
2023-01-19T09:30:59.309Z,79.64
2023-01-19T09:31:59.206Z,79.45
2023-01-19T09:33:01.868Z,79.55
2023-01-19T09:33:59.084Z,79.55
2023-01-19T09:34:59.116Z,79.64
2023-01-19T09:35:59.136Z,79.55
2023-01-19T09:36:59.130Z,79.74
2023-01-19T09:37:59.462Z,79.64
2023-01-19T09:38:59.153Z,79.45
2023-01-19T09:39:59.327Z,79.93
2023-01-19T09:40:59.211Z,79.36
2023-01-19T09:41:59.173Z,79.74
2023-01-19T09:42:59.191Z,79.74
2023-01-19T09:43:59.223Z,79.45
2023-01-19T09:44:59.206Z,79.55
2023-01-19T09:45:59.242Z,79.64
2023-01-19T09:46:59.250Z,79.55
2023-01-19T09:47:59.582Z,79.55
2023-01-19T09:48:59.021Z,79.55
2023-01-19T09:49:59.275Z,79.45
2023-01-19T09:50:59.298Z,79.45
2023-01-19T09:51:59.326Z,79.17
2023-01-19T09:52:59.684Z,79.74
2023-01-19T09:53:59.438Z,79.55
2023-01-19T09:54:59.370Z,79.83
2023-01-19T09:55:59.352Z,79.93
2023-01-19T09:56:59.408Z,79.93
2023-01-19T09:57:59.729Z,79.83
2023-01-19T09:58:59.396Z,79.64
2023-01-19T09:59:59.146Z,79.55
2023-01-19T10:00:59.629Z,79.64
2023-01-19T10:01:59.473Z,79.83
2023-01-19T10:02:59.775Z,79.83
2023-01-19T10:03:59.462Z,79.93
2023-01-19T10:04:59.462Z,79.83
2023-01-19T10:05:59.218Z,79.74
2023-01-19T10:06:59.491Z,79.83
2023-01-19T10:07:59.798Z,79.93
2023-01-19T10:08:59.546Z,79.93
2023-01-19T10:09:59.528Z,79.83
2023-01-19T10:10:59.547Z,79.74
2023-01-19T10:11:59.308Z,79.64
2023-01-19T10:13:00.030Z,79.74
2023-01-19T10:13:59.582Z,79.74
2023-01-19T10:14:59.602Z,79.74
2023-01-19T10:15:59.735Z,79.74
2023-01-19T10:16:59.464Z,80.02
2023-01-19T10:18:00.031Z,80.21
2023-01-19T10:18:59.381Z,79.93
2023-01-19T10:19:59.740Z,80.02
2023-01-19T10:20:59.843Z,80.11
2023-01-19T10:21:59.697Z,80.11
2023-01-19T10:23:00.168Z,80.21
2023-01-19T10:23:59.708Z,80.3
2023-01-19T10:24:59.846Z,80.21
2023-01-19T10:25:59.982Z,80.11
2023-01-19T10:26:59.532Z,80.02
2023-01-19T10:28:00.125Z,80.21
2023-01-19T10:28:59.928Z,80.21
2023-01-19T10:29:59.826Z,80.49
2023-01-19T10:31:00.236Z,80.11
2023-01-19T10:31:59.886Z,80.21
2023-01-19T10:33:00.270Z,80.02
2023-01-19T10:33:59.857Z,80.02
2023-01-19T10:34:59.909Z,80.21
2023-01-19T10:35:59.871Z,80.3
2023-01-19T10:36:59.935Z,80.11
2023-01-19T10:37:59.634Z,80.11
2023-01-19T10:38:59.979Z,80.21
2023-01-19T10:39:59.674Z,80.02
2023-01-19T10:41:00.020Z,80.11
2023-01-19T10:41:59.988Z,80.11
2023-01-19T10:43:00.163Z,80.21
2023-01-19T10:44:00.033Z,80.11
2023-01-19T10:45:00.179Z,79.93
2023-01-19T10:46:00.206Z,80.11
2023-01-19T10:47:00.008Z,79.83
2023-01-19T10:47:59.752Z,79.83
2023-01-19T10:49:00.036Z,80.49
2023-01-19T10:49:59.797Z,79.93
2023-01-19T10:51:00.121Z,80.4
2023-01-19T10:51:59.870Z,80.49
2023-01-19T10:53:00.619Z,80.58
2023-01-19T10:54:00.154Z,80.49
2023-01-19T10:55:00.233Z,79.93
2023-01-19T10:56:00.151Z,80.49
2023-01-19T10:57:00.008Z,80.3
2023-01-19T10:58:00.188Z,80.11
2023-01-19T10:59:00.173Z,80.49
2023-01-19T11:00:00.174Z,80.3
2023-01-19T11:01:00.514Z,79.93
2023-01-19T11:02:00.534Z,80.02
2023-01-19T11:03:00.723Z,80.15
2023-01-19T11:04:00.251Z,80.02
2023-01-19T11:05:00.026Z,80.49
2023-01-19T11:06:00.241Z,80.4
2023-01-19T11:07:00.261Z,80.21
2023-01-19T11:08:00.317Z,80.49
2023-01-19T11:09:00.296Z,80.68
2023-01-19T11:10:00.294Z,80.3
2023-01-19T11:11:00.309Z,80.4
2023-01-19T11:12:00.317Z,80.49
2023-01-19T11:13:01.293Z,80.4
2023-01-19T11:14:00.339Z,80.58
2023-01-19T11:15:00.367Z,80.77
2023-01-19T11:16:00.478Z,80.4
2023-01-19T11:17:00.415Z,80.4
2023-01-19T11:18:00.392Z,80.3
2023-01-19T11:19:00.441Z,80.49
2023-01-19T11:20:00.438Z,80.4
2023-01-19T11:21:00.443Z,80.4
2023-01-19T11:22:00.446Z,80.58
2023-01-19T11:23:00.539Z,80.49
2023-01-19T11:24:00.471Z,80.4
2023-01-19T11:25:00.505Z,80.3
2023-01-19T11:26:00.549Z,80.4
2023-01-19T11:27:00.507Z,80.21
2023-01-19T11:28:00.722Z,80.4
2023-01-19T11:29:00.563Z,80.4
2023-01-19T11:30:00.557Z,80.3
2023-01-19T11:31:00.683Z,80.3
2023-01-19T11:32:00.675Z,80.4
2023-01-19T11:33:01.247Z,80.3
2023-01-19T11:34:00.630Z,80.21
2023-01-19T11:35:00.628Z,80.4
2023-01-19T11:36:00.373Z,81.06
2023-01-19T11:37:00.651Z,80.4
2023-01-19T11:38:00.658Z,80.3
2023-01-19T11:39:00.678Z,80.21
2023-01-19T11:40:00.693Z,80.58
2023-01-19T11:41:00.693Z,81.06
2023-01-19T11:42:00.699Z,81.15
2023-01-19T11:43:00.963Z,81.15
2023-01-19T11:44:00.732Z,80.3
2023-01-19T11:45:00.523Z,81.06
2023-01-19T11:46:00.875Z,80.4
2023-01-19T11:47:00.527Z,80.21
2023-01-19T11:48:01.211Z,81.06
2023-01-19T11:49:00.949Z,80.4
2023-01-19T11:50:00.840Z,80.96
2023-01-19T11:51:00.820Z,80.68
2023-01-19T11:52:00.586Z,81.06
2023-01-19T11:53:00.849Z,81.01
2023-01-19T11:54:00.870Z,81.15
2023-01-19T11:55:00.642Z,80.77
2023-01-19T11:56:00.881Z,81.06
2023-01-19T11:57:00.898Z,80.77
2023-01-19T11:58:00.933Z,81.1
2023-01-19T11:59:00.916Z,81.01
2023-01-19T12:00:00.947Z,80.87
2023-01-19T12:01:01.111Z,80.68
2023-01-19T12:02:01.017Z,80.96
2023-01-19T12:03:00.727Z,80.96
2023-01-19T12:04:01.240Z,80.96
2023-01-19T12:05:01.089Z,80.91
2023-01-19T12:06:01.016Z,80.72
2023-01-19T12:07:01.019Z,81.1
2023-01-19T12:08:03.575Z,81.1
2023-01-19T12:09:01.047Z,80.91
2023-01-19T12:10:00.804Z,81.01
2023-01-19T12:11:01.385Z,80.91
2023-01-19T12:12:01.105Z,80.91
2023-01-19T12:13:01.105Z,81.01
2023-01-19T12:14:01.122Z,81.01
2023-01-19T12:15:00.895Z,81.01
2023-01-19T12:16:01.151Z,80.91
2023-01-19T12:17:01.180Z,80.77
2023-01-19T12:18:01.521Z,80.96
2023-01-19T12:19:01.175Z,80.63
2023-01-19T12:20:01.201Z,80.91
2023-01-19T12:21:03.956Z,80.68
2023-01-19T12:22:01.213Z,80.72
2023-01-19T12:23:01.946Z,80.58
2023-01-19T12:24:01.382Z,80.58
2023-01-19T12:25:01.279Z,80.91
2023-01-19T12:26:01.321Z,80.72
2023-01-19T12:27:01.297Z,80.91
2023-01-19T12:28:01.541Z,80.91
2023-01-19T12:29:01.362Z,81.06
2023-01-19T12:30:01.069Z,81.06
2023-01-19T12:31:01.382Z,80.96
2023-01-19T12:32:01.584Z,80.68
2023-01-19T12:33:01.170Z,81.01
2023-01-19T12:34:01.386Z,80.58
2023-01-19T12:35:01.398Z,80.87
2023-01-19T12:36:01.401Z,81.06
2023-01-19T12:37:01.434Z,80.87
2023-01-19T12:38:01.413Z,81.01
2023-01-19T12:39:01.207Z,81.29
2023-01-19T12:40:01.449Z,80.96
2023-01-19T12:41:01.611Z,81.25
2023-01-19T12:42:01.523Z,81.1
2023-01-19T12:43:01.528Z,80.91
2023-01-19T12:44:01.541Z,80.91
2023-01-19T12:45:01.250Z,81.29
2023-01-19T12:46:01.607Z,80.87
2023-01-19T12:47:01.547Z,80.82
2023-01-19T12:48:01.545Z,81.29
2023-01-19T12:49:01.594Z,80.87
2023-01-19T12:50:01.596Z,81.15
2023-01-19T12:51:01.579Z,81.48
2023-01-19T12:52:01.596Z,81.38
2023-01-19T12:53:01.757Z,81.25
2023-01-19T12:54:01.634Z,81.29
2023-01-19T12:55:01.653Z,81.2
2023-01-19T12:56:01.644Z,81.48
2023-01-19T12:57:01.687Z,81.1